sensor_id;sensor_type;location;lat;lon;timestamp;pressure;altitude;pressure_sealevel;temperature;humidity
61039;BME280;46919;45.816;3.104;2023-05-16T00:00:50;97796.59;;;12.34;87.29
61039;BME280;46919;45.816;3.104;2023-05-16T00:03:18;97795.03;;;12.38;86.32
61039;BME280;46919;45.816;3.104;2023-05-16T00:05:43;97788.94;;;12.31;85.88
61039;BME280;46919;45.816;3.104;2023-05-16T00:08:10;97782.94;;;12.29;85.34
61039;BME280;46919;45.816;3.104;2023-05-16T00:10:35;97778.09;;;12.31;85.03
61039;BME280;46919;45.816;3.104;2023-05-16T00:13:02;97773.75;;;12.30;85.38
61039;BME280;46919;45.816;3.104;2023-05-16T00:15:28;97772.69;;;12.31;84.59
61039;BME280;46919;45.816;3.104;2023-05-16T00:17:55;97779.06;;;12.25;84.40
61039;BME280;46919;45.816;3.104;2023-05-16T00:20:27;97775.16;;;12.21;83.18
61039;BME280;46919;45.816;3.104;2023-05-16T00:22:53;97778.59;;;12.16;82.97
61039;BME280;46919;45.816;3.104;2023-05-16T00:25:19;97776.25;;;12.20;82.29
61039;BME280;46919;45.816;3.104;2023-05-16T00:27:44;97777.31;;;12.19;82.43
61039;BME280;46919;45.816;3.104;2023-05-16T00:30:10;97765.41;;;12.20;82.10
61039;BME280;46919;45.816;3.104;2023-05-16T00:32:36;97766.00;;;12.10;81.48
61039;BME280;46919;45.816;3.104;2023-05-16T00:35:02;97769.78;;;12.09;81.22
61039;BME280;46919;45.816;3.104;2023-05-16T00:37:27;97770.03;;;12.07;81.00
61039;BME280;46919;45.816;3.104;2023-05-16T00:39:53;97775.44;;;12.07;80.89
61039;BME280;46919;45.816;3.104;2023-05-16T00:42:19;97770.72;;;12.03;80.91
61039;BME280;46919;45.816;3.104;2023-05-16T00:44:46;97761.19;;;12.00;80.93
61039;BME280;46919;45.816;3.104;2023-05-16T00:47:11;97761.66;;;11.97;81.03
61039;BME280;46919;45.816;3.104;2023-05-16T00:49:37;97765.44;;;11.96;80.68
61039;BME280;46919;45.816;3.104;2023-05-16T00:52:03;97759.75;;;11.86;81.08
61039;BME280;46919;45.816;3.104;2023-05-16T00:54:29;97765.63;;;11.83;81.04
61039;BME280;46919;45.816;3.104;2023-05-16T00:56:55;97756.59;;;11.77;81.14
61039;BME280;46919;45.816;3.104;2023-05-16T00:59:22;97761.16;;;11.76;82.10
61039;BME280;46919;45.816;3.104;2023-05-16T01:01:49;97759.28;;;11.77;82.17
61039;BME280;46919;45.816;3.104;2023-05-16T01:04:16;97756.22;;;11.73;81.94
61039;BME280;46919;45.816;3.104;2023-05-16T01:06:42;97760.34;;;11.64;82.24
61039;BME280;46919;45.816;3.104;2023-05-16T01:09:07;97758.22;;;11.66;82.43
61039;BME280;46919;45.816;3.104;2023-05-16T01:11:56;97755.63;;;11.71;82.61
61039;BME280;46919;45.816;3.104;2023-05-16T01:14:54;97752.31;;;11.57;82.96
61039;BME280;46919;45.816;3.104;2023-05-16T01:21:26;97755.25;;;11.44;83.14
61039;BME280;46919;45.816;3.104;2023-05-16T01:28:40;97755.50;;;11.42;84.00
61039;BME280;46919;45.816;3.104;2023-05-16T01:31:06;97752.56;;;11.44;84.16
61039;BME280;46919;45.816;3.104;2023-05-16T01:33:31;97757.16;;;11.44;84.41
61039;BME280;46919;45.816;3.104;2023-05-16T01:38:39;97755.16;;;11.39;84.55
61039;BME280;46919;45.816;3.104;2023-05-16T01:41:15;97743.94;;;11.35;85.05
61039;BME280;46919;45.816;3.104;2023-05-16T01:43:45;97753.59;;;11.31;85.55
61039;BME280;46919;45.816;3.104;2023-05-16T01:46:23;97756.09;;;11.33;85.55
61039;BME280;46919;45.816;3.104;2023-05-16T01:51:49;97762.41;;;11.38;85.53
61039;BME280;46919;45.816;3.104;2023-05-16T01:54:17;97753.38;;;11.45;85.46
61039;BME280;46919;45.816;3.104;2023-05-16T01:56:50;97751.75;;;11.44;85.51
61039;BME280;46919;45.816;3.104;2023-05-16T01:59:16;97745.38;;;11.38;85.92
61039;BME280;46919;45.816;3.104;2023-05-16T02:01:42;97755.50;;;11.42;86.00
61039;BME280;46919;45.816;3.104;2023-05-16T02:04:07;97748.91;;;11.38;86.16
61039;BME280;46919;45.816;3.104;2023-05-16T02:06:33;97751.38;;;11.40;86.54
61039;BME280;46919;45.816;3.104;2023-05-16T02:08:58;97747.97;;;11.45;86.78
61039;BME280;46919;45.816;3.104;2023-05-16T02:11:24;97747.28;;;11.37;86.68
61039;BME280;46919;45.816;3.104;2023-05-16T02:13:50;97753.03;;;11.41;86.59
61039;BME280;46919;45.816;3.104;2023-05-16T02:16:15;97743.47;;;11.38;86.49
61039;BME280;46919;45.816;3.104;2023-05-16T02:18:41;97748.53;;;11.35;86.60
61039;BME280;46919;45.816;3.104;2023-05-16T02:21:06;97745.03;;;11.34;87.09
61039;BME280;46919;45.816;3.104;2023-05-16T02:23:32;97747.28;;;11.37;87.45
61039;BME280;46919;45.816;3.104;2023-05-16T02:25:58;97749.81;;;11.32;87.65
61039;BME280;46919;45.816;3.104;2023-05-16T02:28:23;97742.50;;;11.21;88.33
61039;BME280;46919;45.816;3.104;2023-05-16T02:30:58;97741.25;;;11.23;88.03
61039;BME280;46919;45.816;3.104;2023-05-16T02:33:25;97740.88;;;11.20;87.79
61039;BME280;46919;45.816;3.104;2023-05-16T02:35:52;97749.22;;;11.18;87.86
61039;BME280;46919;45.816;3.104;2023-05-16T02:38:17;97744.75;;;11.12;88.96
61039;BME280;46919;45.816;3.104;2023-05-16T02:40:45;97740.28;;;11.18;88.29
61039;BME280;46919;45.816;3.104;2023-05-16T02:43:10;97737.00;;;11.16;87.83
61039;BME280;46919;45.816;3.104;2023-05-16T02:45:36;97745.56;;;11.13;88.65
61039;BME280;46919;45.816;3.104;2023-05-16T02:48:01;97742.84;;;11.13;88.93
61039;BME280;46919;45.816;3.104;2023-05-16T02:50:27;97749.09;;;11.13;88.44
61039;BME280;46919;45.816;3.104;2023-05-16T02:52:52;97746.16;;;11.15;88.05
61039;BME280;46919;45.816;3.104;2023-05-16T02:55:18;97751.09;;;11.18;87.47
61039;BME280;46919;45.816;3.104;2023-05-16T02:57:43;97746.53;;;11.18;88.06
61039;BME280;46919;45.816;3.104;2023-05-16T03:00:09;97743.22;;;11.16;88.04
61039;BME280;46919;45.816;3.104;2023-05-16T03:02:36;97745.78;;;11.11;88.68
61039;BME280;46919;45.816;3.104;2023-05-16T03:05:01;97748.84;;;11.15;88.92
61039;BME280;46919;45.816;3.104;2023-05-16T03:07:27;97742.41;;;11.16;89.54
61039;BME280;46919;45.816;3.104;2023-05-16T03:09:52;97742.16;;;11.17;90.27
61039;BME280;46919;45.816;3.104;2023-05-16T03:12:20;97741.44;;;11.10;91.10
61039;BME280;46919;45.816;3.104;2023-05-16T03:14:47;97740.63;;;11.10;92.24
61039;BME280;46919;45.816;3.104;2023-05-16T03:17:13;97730.25;;;11.06;93.24
61039;BME280;46919;45.816;3.104;2023-05-16T03:19:38;97731.91;;;11.08;94.00
61039;BME280;46919;45.816;3.104;2023-05-16T03:22:04;97724.84;;;11.06;95.03
61039;BME280;46919;45.816;3.104;2023-05-16T03:24:29;97726.97;;;11.04;95.46
61039;BME280;46919;45.816;3.104;2023-05-16T03:26:55;97726.63;;;11.01;96.27
61039;BME280;46919;45.816;3.104;2023-05-16T03:29:20;97714.25;;;10.93;97.41
61039;BME280;46919;45.816;3.104;2023-05-16T03:31:46;97720.34;;;10.88;97.30
61039;BME280;46919;45.816;3.104;2023-05-16T03:34:11;97726.44;;;10.84;97.75
61039;BME280;46919;45.816;3.104;2023-05-16T03:36:38;97723.28;;;10.87;97.52
61039;BME280;46919;45.816;3.104;2023-05-16T03:39:04;97728.91;;;10.85;97.30
61039;BME280;46919;45.816;3.104;2023-05-16T03:41:29;97721.50;;;10.81;97.39
61039;BME280;46919;45.816;3.104;2023-05-16T03:43:55;97722.31;;;10.81;97.41
61039;BME280;46919;45.816;3.104;2023-05-16T03:46:20;97724.53;;;10.73;97.80
61039;BME280;46919;45.816;3.104;2023-05-16T03:48:45;97718.38;;;10.65;98.16
61039;BME280;46919;45.816;3.104;2023-05-16T03:51:11;97717.34;;;10.66;98.40
61039;BME280;46919;45.816;3.104;2023-05-16T03:53:36;97725.81;;;10.70;98.78
61039;BME280;46919;45.816;3.104;2023-05-16T03:56:02;97725.13;;;10.75;99.52
61039;BME280;46919;45.816;3.104;2023-05-16T03:58:28;97729.47;;;10.76;99.00
61039;BME280;46919;45.816;3.104;2023-05-16T04:00:53;97723.38;;;10.80;98.61
61039;BME280;46919;45.816;3.104;2023-05-16T04:03:19;97736.91;;;10.80;98.48
61039;BME280;46919;45.816;3.104;2023-05-16T04:05:45;97737.19;;;10.72;98.89
61039;BME280;46919;45.816;3.104;2023-05-16T04:08:10;97742.88;;;10.71;98.74
61039;BME280;46919;45.816;3.104;2023-05-16T04:10:36;97744.00;;;10.63;99.15
61039;BME280;46919;45.816;3.104;2023-05-16T04:13:01;97749.97;;;10.53;99.62
61039;BME280;46919;45.816;3.104;2023-05-16T04:15:26;97752.19;;;10.56;98.98
61039;BME280;46919;45.816;3.104;2023-05-16T04:17:52;97745.50;;;10.59;98.78
61039;BME280;46919;45.816;3.104;2023-05-16T04:20:17;97757.00;;;10.54;98.71
61039;BME280;46919;45.816;3.104;2023-05-16T04:22:43;97772.03;;;10.50;98.34
61039;BME280;46919;45.816;3.104;2023-05-16T04:25:09;97773.91;;;10.31;98.12
61039;BME280;46919;45.816;3.104;2023-05-16T04:27:35;97775.03;;;10.23;98.47
61039;BME280;46919;45.816;3.104;2023-05-16T04:30:01;97771.88;;;10.26;97.89
61039;BME280;46919;45.816;3.104;2023-05-16T04:32:26;97782.13;;;10.18;97.97
61039;BME280;46919;45.816;3.104;2023-05-16T04:34:52;97786.28;;;10.20;98.27
61039;BME280;46919;45.816;3.104;2023-05-16T04:37:18;97786.28;;;10.20;97.76
61039;BME280;46919;45.816;3.104;2023-05-16T04:39:43;97794.13;;;10.03;97.76
61039;BME280;46919;45.816;3.104;2023-05-16T04:42:09;97789.03;;;9.95;97.74
61039;BME280;46919;45.816;3.104;2023-05-16T04:44:34;97792.03;;;9.87;97.89
61039;BME280;46919;45.816;3.104;2023-05-16T04:47:00;97788.31;;;9.81;98.07
61039;BME280;46919;45.816;3.104;2023-05-16T04:49:25;97805.41;;;9.75;98.15
61039;BME280;46919;45.816;3.104;2023-05-16T04:51:51;97805.09;;;9.65;98.21
61039;BME280;46919;45.816;3.104;2023-05-16T04:54:16;97807.28;;;9.49;98.86
61039;BME280;46919;45.816;3.104;2023-05-16T04:56:42;97809.53;;;9.27;99.57
61039;BME280;46919;45.816;3.104;2023-05-16T04:59:07;97808.66;;;9.33;99.48
61039;BME280;46919;45.816;3.104;2023-05-16T05:01:33;97818.63;;;9.33;99.48
61039;BME280;46919;45.816;3.104;2023-05-16T05:03:58;97817.81;;;9.25;100.00
61039;BME280;46919;45.816;3.104;2023-05-16T05:06:23;97818.09;;;9.17;100.00
61039;BME280;46919;45.816;3.104;2023-05-16T05:08:49;97812.88;;;9.22;100.00
61039;BME280;46919;45.816;3.104;2023-05-16T05:11:15;97810.00;;;9.17;100.00
61039;BME280;46919;45.816;3.104;2023-05-16T05:13:40;97806.00;;;9.27;100.00
61039;BME280;46919;45.816;3.104;2023-05-16T05:16:06;97813.03;;;9.28;100.00
61039;BME280;46919;45.816;3.104;2023-05-16T05:18:31;97818.66;;;9.26;100.00
61039;BME280;46919;45.816;3.104;2023-05-16T05:20:57;97821.59;;;9.18;100.00
61039;BME280;46919;45.816;3.104;2023-05-16T05:23:22;97815.66;;;9.09;100.00
61039;BME280;46919;45.816;3.104;2023-05-16T05:25:48;97821.66;;;9.11;100.00
61039;BME280;46919;45.816;3.104;2023-05-16T05:28:14;97818.97;;;9.11;100.00
61039;BME280;46919;45.816;3.104;2023-05-16T05:30:39;97822.09;;;9.08;100.00
61039;BME280;46919;45.816;3.104;2023-05-16T05:33:04;97811.69;;;9.12;100.00
61039;BME280;46919;45.816;3.104;2023-05-16T05:35:30;97821.66;;;9.11;100.00
61039;BME280;46919;45.816;3.104;2023-05-16T05:37:55;97817.50;;;9.15;100.00
61039;BME280;46919;45.816;3.104;2023-05-16T05:40:21;97814.97;;;9.20;99.75
61039;BME280;46919;45.816;3.104;2023-05-16T05:42:46;97821.59;;;9.18;99.59
61039;BME280;46919;45.816;3.104;2023-05-16T05:45:12;97820.78;;;9.17;99.67
61039;BME280;46919;45.816;3.104;2023-05-16T05:47:37;97804.78;;;9.22;99.66
61039;BME280;46919;45.816;3.104;2023-05-16T05:50:03;97811.25;;;9.21;99.77
61039;BME280;46919;45.816;3.104;2023-05-16T05:52:29;97805.38;;;9.24;99.96
61039;BME280;46919;45.816;3.104;2023-05-16T05:54:55;97811.56;;;9.32;99.20
61039;BME280;46919;45.816;3.104;2023-05-16T05:57:20;97803.75;;;9.23;99.23
61039;BME280;46919;45.816;3.104;2023-05-16T05:59:46;97812.88;;;9.22;99.54
61039;BME280;46919;45.816;3.104;2023-05-16T06:02:11;97815.09;;;9.32;98.75
61039;BME280;46919;45.816;3.104;2023-05-16T06:04:37;97815.94;;;9.33;98.96
61039;BME280;46919;45.816;3.104;2023-05-16T06:07:03;97811.78;;;9.30;99.56
61039;BME280;46919;45.816;3.104;2023-05-16T06:09:28;97820.09;;;9.29;99.44
61039;BME280;46919;45.816;3.104;2023-05-16T06:11:54;97822.34;;;9.32;99.13
61039;BME280;46919;45.816;3.104;2023-05-16T06:14:19;97826.53;;;9.28;99.75
61039;BME280;46919;45.816;3.104;2023-05-16T06:16:45;97836.28;;;9.29;100.00
61039;BME280;46919;45.816;3.104;2023-05-16T06:19:10;97822.94;;;9.34;99.65
61039;BME280;46919;45.816;3.104;2023-05-16T06:21:40;97829.75;;;9.43;99.79
61039;BME280;46919;45.816;3.104;2023-05-16T06:24:05;97830.78;;;9.42;99.73
61039;BME280;46919;45.816;3.104;2023-05-16T06:26:32;97829.13;;;9.41;99.72
61039;BME280;46919;45.816;3.104;2023-05-16T06:28:57;97834.38;;;9.36;100.00
61039;BME280;46919;45.816;3.104;2023-05-16T06:31:23;97837.28;;;9.34;100.00
61039;BME280;46919;45.816;3.104;2023-05-16T06:33:48;97835.34;;;9.41;99.73
61039;BME280;46919;45.816;3.104;2023-05-16T06:36:14;97829.41;;;9.33;99.82
61039;BME280;46919;45.816;3.104;2023-05-16T06:38:39;97844.25;;;9.42;99.85
61039;BME280;46919;45.816;3.104;2023-05-16T06:41:05;97842.47;;;9.29;100.00
61039;BME280;46919;45.816;3.104;2023-05-16T06:43:30;97849.75;;;9.29;100.00
61039;BME280;46919;45.816;3.104;2023-05-16T06:45:55;97844.38;;;9.29;100.00
61039;BME280;46919;45.816;3.104;2023-05-16T06:48:21;97843.94;;;9.32;100.00
61039;BME280;46919;45.816;3.104;2023-05-16T06:50:49;97857.38;;;9.38;100.00
61039;BME280;46919;45.816;3.104;2023-05-16T06:53:16;97849.31;;;9.32;100.00
61039;BME280;46919;45.816;3.104;2023-05-16T06:55:42;97850.56;;;9.36;100.00
61039;BME280;46919;45.816;3.104;2023-05-16T06:58:07;97853.69;;;9.33;100.00
61039;BME280;46919;45.816;3.104;2023-05-16T07:00:33;97848.09;;;9.28;100.00
61039;BME280;46919;45.816;3.104;2023-05-16T07:02:58;97855.59;;;9.25;100.00
61039;BME280;46919;45.816;3.104;2023-05-16T07:05:24;97845.88;;;9.18;100.00
61039;BME280;46919;45.816;3.104;2023-05-16T07:07:49;97851.47;;;9.16;100.00
61039;BME280;46919;45.816;3.104;2023-05-16T07:10:15;97850.88;;;9.14;100.00
61039;BME280;46919;45.816;3.104;2023-05-16T07:12:41;97859.78;;;9.15;100.00
61039;BME280;46919;45.816;3.104;2023-05-16T07:15:07;97855.25;;;9.15;100.00
61039;BME280;46919;45.816;3.104;2023-05-16T07:17:33;97847.75;;;9.17;100.00
61039;BME280;46919;45.816;3.104;2023-05-16T07:19:59;97852.34;;;9.17;100.00
61039;BME280;46919;45.816;3.104;2023-05-16T07:22:24;97859.41;;;9.11;100.00
61039;BME280;46919;45.816;3.104;2023-05-16T07:24:50;97856.09;;;9.09;100.00
61039;BME280;46919;45.816;3.104;2023-05-16T07:27:18;97856.94;;;9.10;100.00
61039;BME280;46919;45.816;3.104;2023-05-16T07:29:43;97863.38;;;9.02;100.00
61039;BME280;46919;45.816;3.104;2023-05-16T07:32:09;97860.25;;;9.05;100.00
61039;BME280;46919;45.816;3.104;2023-05-16T07:34:34;97863.50;;;9.20;100.00
61039;BME280;46919;45.816;3.104;2023-05-16T07:37:00;97851.47;;;9.16;100.00
61039;BME280;46919;45.816;3.104;2023-05-16T07:39:25;97859.56;;;9.16;100.00
61039;BME280;46919;45.816;3.104;2023-05-16T07:41:50;97865.41;;;9.13;100.00
61039;BME280;46919;45.816;3.104;2023-05-16T07:44:16;97866.19;;;9.20;100.00
61039;BME280;46919;45.816;3.104;2023-05-16T07:46:41;97873.44;;;9.27;100.00
61039;BME280;46919;45.816;3.104;2023-05-16T07:49:09;97882.56;;;9.25;100.00
61039;BME280;46919;45.816;3.104;2023-05-16T07:51:34;97883.41;;;9.19;100.00
61039;BME280;46919;45.816;3.104;2023-05-16T07:54:00;97884.28;;;9.13;100.00
61039;BME280;46919;45.816;3.104;2023-05-16T07:56:26;97879.28;;;9.17;100.00
61039;BME280;46919;45.816;3.104;2023-05-16T07:58:51;97879.50;;;9.15;100.00
61039;BME280;46919;45.816;3.104;2023-05-16T08:01:17;97882.44;;;9.14;100.00
61039;BME280;46919;45.816;3.104;2023-05-16T08:03:43;97880.53;;;9.14;100.00
61039;BME280;46919;45.816;3.104;2023-05-16T08:06:08;97890.91;;;9.17;100.00
61039;BME280;46919;45.816;3.104;2023-05-16T08:08:34;97887.78;;;9.20;100.00
61039;BME280;46919;45.816;3.104;2023-05-16T08:11:00;97882.97;;;9.22;100.00
61039;BME280;46919;45.816;3.104;2023-05-16T08:13:25;97882.00;;;9.17;100.00
61039;BME280;46919;45.816;3.104;2023-05-16T08:15:50;97887.16;;;9.18;100.00
61039;BME280;46919;45.816;3.104;2023-05-16T08:18:16;97890.91;;;9.17;100.00
61039;BME280;46919;45.816;3.104;2023-05-16T08:20:41;97897.56;;;9.08;100.00
61039;BME280;46919;45.816;3.104;2023-05-16T08:23:08;97886.41;;;9.04;100.00
61039;BME280;46919;45.816;3.104;2023-05-16T08:25:33;97884.69;;;9.10;100.00
61039;BME280;46919;45.816;3.104;2023-05-16T08:27:59;97884.13;;;9.01;100.00
61039;BME280;46919;45.816;3.104;2023-05-16T08:30:26;97884.13;;;9.01;100.00
61039;BME280;46919;45.816;3.104;2023-05-16T08:32:52;97888.94;;;8.93;100.00
61039;BME280;46919;45.816;3.104;2023-05-16T08:35:17;97888.94;;;8.93;100.00
61039;BME280;46919;45.816;3.104;2023-05-16T08:37:43;97893.72;;;8.91;100.00
61039;BME280;46919;45.816;3.104;2023-05-16T08:40:09;97891.03;;;8.91;100.00
61039;BME280;46919;45.816;3.104;2023-05-16T08:42:35;97892.25;;;8.95;100.00
61039;BME280;46919;45.816;3.104;2023-05-16T08:45:01;97898.06;;;8.92;100.00
61039;BME280;46919;45.816;3.104;2023-05-16T08:47:30;97900.34;;;8.95;100.00
61039;BME280;46919;45.816;3.104;2023-05-16T08:49:56;97902.97;;;9.08;100.00
61039;BME280;46919;45.816;3.104;2023-05-16T08:52:25;97905.84;;;9.13;100.00
61039;BME280;46919;45.816;3.104;2023-05-16T08:54:53;97907.94;;;9.11;100.00
61039;BME280;46919;45.816;3.104;2023-05-16T08:57:19;97901.31;;;9.07;100.00
61039;BME280;46919;45.816;3.104;2023-05-16T08:59:45;97912.72;;;9.09;100.00
61039;BME280;46919;45.816;3.104;2023-05-16T09:02:11;97910.91;;;8.96;100.00
61039;BME280;46919;45.816;3.104;2023-05-16T09:04:37;97919.63;;;8.92;100.00
61039;BME280;46919;45.816;3.104;2023-05-16T09:07:05;97919.63;;;8.85;100.00
61039;BME280;46919;45.816;3.104;2023-05-16T09:09:30;97911.38;;;8.80;100.00
61039;BME280;46919;45.816;3.104;2023-05-16T09:11:56;97919.25;;;8.81;100.00
61039;BME280;46919;45.816;3.104;2023-05-16T09:14:21;97917.75;;;8.92;100.00
61039;BME280;46919;45.816;3.104;2023-05-16T09:17:07;97930.59;;;8.97;100.00
61039;BME280;46919;45.816;3.104;2023-05-16T09:19:39;97928.94;;;8.96;100.00
61039;BME280;46919;45.816;3.104;2023-05-16T09:22:07;97930.81;;;8.95;100.00
61039;BME280;46919;45.816;3.104;2023-05-16T09:24:37;97923.94;;;9.06;100.00
61039;BME280;46919;45.816;3.104;2023-05-16T09:29:35;97932.91;;;8.86;100.00
61039;BME280;46919;45.816;3.104;2023-05-16T09:32:14;97927.50;;;8.86;100.00
61039;BME280;46919;45.816;3.104;2023-05-16T09:34:44;97927.34;;;8.81;100.00
61039;BME280;46919;45.816;3.104;2023-05-16T09:37:10;97934.38;;;8.82;100.00
61039;BME280;46919;45.816;3.104;2023-05-16T09:39:39;97941.66;;;8.82;100.00
61039;BME280;46919;45.816;3.104;2023-05-16T09:42:10;97939.16;;;8.74;100.00
61039;BME280;46919;45.816;3.104;2023-05-16T09:44:36;97940.66;;;8.69;100.00
61039;BME280;46919;45.816;3.104;2023-05-16T09:47:02;97942.06;;;8.72;100.00
61039;BME280;46919;45.816;3.104;2023-05-16T09:49:27;97949.94;;;8.80;100.00
61039;BME280;46919;45.816;3.104;2023-05-16T09:51:53;97943.72;;;8.80;100.00
61039;BME280;46919;45.816;3.104;2023-05-16T09:54:34;97943.69;;;8.86;100.00
61039;BME280;46919;45.816;3.104;2023-05-16T09:57:00;97950.34;;;8.84;100.00
61039;BME280;46919;45.816;3.104;2023-05-16T09:59:29;97958.63;;;8.82;100.00
61039;BME280;46919;45.816;3.104;2023-05-16T10:01:57;97956.56;;;8.84;100.00
61039;BME280;46919;45.816;3.104;2023-05-16T10:04:23;97956.56;;;8.84;100.00
61039;BME280;46919;45.816;3.104;2023-05-16T10:06:49;97961.31;;;8.89;100.00
61039;BME280;46919;45.816;3.104;2023-05-16T10:09:17;97961.72;;;8.86;100.00
61039;BME280;46919;45.816;3.104;2023-05-16T10:11:44;97962.34;;;8.88;100.00
61039;BME280;46919;45.816;3.104;2023-05-16T10:14:11;97958.63;;;8.89;100.00
61039;BME280;46919;45.816;3.104;2023-05-16T10:16:42;97976.84;;;8.94;100.00
61039;BME280;46919;45.816;3.104;2023-05-16T10:19:08;97969.78;;;8.93;100.00
61039;BME280;46919;45.816;3.104;2023-05-16T10:21:36;97967.53;;;8.96;100.00
61039;BME280;46919;45.816;3.104;2023-05-16T10:24:05;97968.94;;;8.99;100.00
61039;BME280;46919;45.816;3.104;2023-05-16T10:26:31;97961.91;;;8.98;100.00
61039;BME280;46919;45.816;3.104;2023-05-16T10:28:57;97964.81;;;8.96;100.00
61039;BME280;46919;45.816;3.104;2023-05-16T10:31:22;97969.75;;;9.06;100.00
61039;BME280;46919;45.816;3.104;2023-05-16T10:33:49;97980.72;;;9.11;100.00
61039;BME280;46919;45.816;3.104;2023-05-16T10:36:15;97984.47;;;9.10;100.00
61039;BME280;46919;45.816;3.104;2023-05-16T10:38:41;97983.84;;;9.08;100.00
61039;BME280;46919;45.816;3.104;2023-05-16T10:41:08;97985.94;;;9.06;100.00
61039;BME280;46919;45.816;3.104;2023-05-16T10:43:34;97974.09;;;9.07;100.00
61039;BME280;46919;45.816;3.104;2023-05-16T10:46:08;97978.00;;;9.18;100.00
61039;BME280;46919;45.816;3.104;2023-05-16T10:48:38;97982.94;;;9.28;100.00
61039;BME280;46919;45.816;3.104;2023-05-16T10:51:37;97990.47;;;9.19;100.00
61039;BME280;46919;45.816;3.104;2023-05-16T10:54:10;97988.78;;;9.18;100.00
61039;BME280;46919;45.816;3.104;2023-05-16T10:56:36;97983.19;;;9.19;100.00
61039;BME280;46919;45.816;3.104;2023-05-16T10:59:02;97994.59;;;9.15;100.00
61039;BME280;46919;45.816;3.104;2023-05-16T11:01:31;97997.50;;;9.13;100.00
61039;BME280;46919;45.816;3.104;2023-05-16T11:06:42;98009.16;;;9.00;100.00
61039;BME280;46919;45.816;3.104;2023-05-16T11:11:44;98012.66;;;9.14;100.00
61039;BME280;46919;45.816;3.104;2023-05-16T11:17:13;98003.19;;;9.43;100.00
61039;BME280;46919;45.816;3.104;2023-05-16T11:19:54;98010.22;;;9.51;99.36
61039;BME280;46919;45.816;3.104;2023-05-16T11:22:27;98003.97;;;9.57;98.87
61039;BME280;46919;45.816;3.104;2023-05-16T11:24:53;98016.78;;;9.69;98.26
61039;BME280;46919;45.816;3.104;2023-05-16T11:27:21;98013.00;;;9.76;98.00
61039;BME280;46919;45.816;3.104;2023-05-16T11:29:47;98005.66;;;9.90;96.90
61039;BME280;46919;45.816;3.104;2023-05-16T11:32:13;98009.81;;;9.86;97.13
61039;BME280;46919;45.816;3.104;2023-05-16T11:34:38;98022.75;;;9.77;97.49
61039;BME280;46919;45.816;3.104;2023-05-16T11:37:04;98016.56;;;9.70;98.04
61039;BME280;46919;45.816;3.104;2023-05-16T11:39:31;98018.44;;;9.70;98.49
61039;BME280;46919;45.816;3.104;2023-05-16T11:41:56;98022.94;;;9.44;98.07
61039;BME280;46919;45.816;3.104;2023-05-16T11:44:22;98023.34;;;9.41;97.74
61039;BME280;46919;45.816;3.104;2023-05-16T11:46:47;98024.22;;;9.35;97.72
61039;BME280;46919;45.816;3.104;2023-05-16T11:49:13;98029.81;;;9.33;96.66
61039;BME280;46919;45.816;3.104;2023-05-16T11:51:39;98025.19;;;9.40;96.17
61039;BME280;46919;45.816;3.104;2023-05-16T11:54:05;98033.97;;;9.36;95.15
61039;BME280;46919;45.816;3.104;2023-05-16T11:56:33;98027.69;;;9.42;95.68
61039;BME280;46919;45.816;3.104;2023-05-16T11:58:59;98028.09;;;9.46;95.02
61039;BME280;46919;45.816;3.104;2023-05-16T12:01:32;98036.41;;;9.44;94.94
61039;BME280;46919;45.816;3.104;2023-05-16T12:03:57;98027.06;;;9.47;94.43
61039;BME280;46919;45.816;3.104;2023-05-16T12:06:23;98029.75;;;9.53;94.33
61039;BME280;46919;45.816;3.104;2023-05-16T12:08:49;98022.25;;;9.55;93.61
61039;BME280;46919;45.816;3.104;2023-05-16T12:11:16;98037.03;;;9.46;92.87
61039;BME280;46919;45.816;3.104;2023-05-16T12:13:41;98026.84;;;9.48;93.27
61039;BME280;46919;45.816;3.104;2023-05-16T12:16:07;98025.19;;;9.47;93.38
61039;BME280;46919;45.816;3.104;2023-05-16T12:18:32;98029.75;;;9.53;93.40
61039;BME280;46919;45.816;3.104;2023-05-16T12:20:58;98029.69;;;9.60;92.52
61039;BME280;46919;45.816;3.104;2023-05-16T12:23:25;98032.19;;;9.61;91.38
61039;BME280;46919;45.816;3.104;2023-05-16T12:25:51;98034.25;;;9.66;91.20
61039;BME280;46919;45.816;3.104;2023-05-16T12:28:19;98036.09;;;9.72;91.18
61039;BME280;46919;45.816;3.104;2023-05-16T12:30:45;98035.06;;;9.67;90.64
61039;BME280;46919;45.816;3.104;2023-05-16T12:33:14;98039.44;;;9.68;90.36
61039;BME280;46919;45.816;3.104;2023-05-16T12:35:42;98042.13;;;9.68;90.54
61039;BME280;46919;45.816;3.104;2023-05-16T12:38:09;98040.63;;;9.72;90.61
61039;BME280;46919;45.816;3.104;2023-05-16T12:40:39;98045.38;;;9.76;90.21
61039;BME280;46919;45.816;3.104;2023-05-16T12:43:21;98037.06;;;9.78;90.25
61039;BME280;46919;45.816;3.104;2023-05-16T12:45:49;98039.38;;;9.74;89.67
61039;BME280;46919;45.816;3.104;2023-05-16T12:48:16;98041.22;;;9.81;90.04
61039;BME280;46919;45.816;3.104;2023-05-16T12:50:42;98032.88;;;9.89;90.00
61039;BME280;46919;45.816;3.104;2023-05-16T12:53:15;98045.88;;;9.98;89.31
61039;BME280;46919;45.816;3.104;2023-05-16T12:55:41;98036.50;;;10.08;88.44
61039;BME280;46919;45.816;3.104;2023-05-16T12:58:08;98030.47;;;10.06;87.51
61039;BME280;46919;45.816;3.104;2023-05-16T13:00:34;98032.31;;;10.12;87.42
61039;BME280;46919;45.816;3.104;2023-05-16T13:03:01;98036.38;;;10.21;86.63
61039;BME280;46919;45.816;3.104;2023-05-16T13:05:26;98025.31;;;10.36;86.42
61039;BME280;46919;45.816;3.104;2023-05-16T13:07:51;98028.94;;;10.48;85.53
61039;BME280;46919;45.816;3.104;2023-05-16T13:10:17;98030.81;;;10.48;85.33
61039;BME280;46919;45.816;3.104;2023-05-16T13:12:43;98021.38;;;10.57;85.66
61039;BME280;46919;45.816;3.104;2023-05-16T13:15:10;98019.47;;;10.64;85.92
61039;BME280;46919;45.816;3.104;2023-05-16T13:17:40;98016.97;;;10.63;85.22
61039;BME280;46919;45.816;3.104;2023-05-16T13:20:06;98014.78;;;10.53;85.26
61039;BME280;46919;45.816;3.104;2023-05-16T13:22:40;98023.13;;;10.45;85.99
61039;BME280;46919;45.816;3.104;2023-05-16T13:25:05;98026.50;;;10.40;85.37